createdAt,value
2022-08-18T00:01:17.280Z,21.10
2022-08-18T00:03:56.898Z,21.10
2022-08-18T00:06:30.599Z,21.10
2022-08-18T00:09:01.915Z,21.10
2022-08-18T00:11:40.703Z,21.00
2022-08-18T00:14:11.925Z,21.00
2022-08-18T00:16:48.762Z,21.00
2022-08-18T00:19:16.099Z,21.00
2022-08-18T00:21:43.802Z,21.00
2022-08-18T00:24:11.343Z,21.00
2022-08-18T00:26:38.665Z,21.00
2022-08-18T00:29:05.831Z,21.00
2022-08-18T00:31:33.353Z,20.90
2022-08-18T00:34:00.926Z,20.90
2022-08-18T00:36:28.371Z,20.90
2022-08-18T00:38:55.760Z,20.80
2022-08-18T00:41:26.912Z,20.80
2022-08-18T00:43:55.684Z,20.70
2022-08-18T00:46:24.821Z,20.80
2022-08-18T00:48:52.939Z,20.80
2022-08-18T00:51:39.808Z,20.80
2022-08-18T00:54:10.810Z,20.70
2022-08-18T00:56:39.659Z,20.70
2022-08-18T00:59:12.861Z,20.60
2022-08-18T01:01:41.356Z,20.60
2022-08-18T01:04:12.744Z,20.60
2022-08-18T01:06:44.173Z,20.60
2022-08-18T01:09:13.684Z,20.60
2022-08-18T01:11:41.601Z,20.60
2022-08-18T01:14:16.064Z,20.60
2022-08-18T01:17:02.021Z,20.60
2022-08-18T01:19:47.725Z,20.50
2022-08-18T01:22:35.276Z,20.50
2022-08-18T01:25:21.188Z,20.50
2022-08-18T01:27:51.132Z,20.50
2022-08-18T01:30:19.456Z,20.50
2022-08-18T01:32:46.779Z,20.40
2022-08-18T01:35:15.793Z,20.40
2022-08-18T01:37:43.097Z,20.40
2022-08-18T01:41:23.095Z,20.30
2022-08-18T01:43:07.393Z,20.30
2022-08-18T01:45:34.799Z,20.30
2022-08-18T01:48:04.721Z,20.30
2022-08-18T01:50:34.417Z,20.30
2022-08-18T01:53:02.426Z,20.40
2022-08-18T01:55:29.651Z,20.40
2022-08-18T01:57:57.300Z,20.40
2022-08-18T02:00:26.002Z,20.40
2022-08-18T02:02:58.171Z,20.40
2022-08-18T02:05:33.846Z,20.40
2022-08-18T02:08:01.118Z,20.30
2022-08-18T02:10:29.774Z,20.30
2022-08-18T02:12:57.150Z,20.30
2022-08-18T02:15:24.321Z,20.30
2022-08-18T02:17:51.973Z,20.30
2022-08-18T02:20:19.521Z,20.30
2022-08-18T02:22:47.403Z,20.30
2022-08-18T02:25:15.438Z,20.30
2022-08-18T02:27:43.405Z,20.30
2022-08-18T02:30:11.904Z,20.20
2022-08-18T02:32:39.219Z,20.20
2022-08-18T02:35:08.342Z,20.20
2022-08-18T02:37:42.141Z,20.20
2022-08-18T02:40:15.091Z,20.20
2022-08-18T02:42:44.169Z,20.10
2022-08-18T02:45:13.024Z,20.00
2022-08-18T02:47:40.783Z,20.10
2022-08-18T02:50:10.912Z,20.10
2022-08-18T02:52:40.395Z,20.10
2022-08-18T02:55:08.396Z,20.00
2022-08-18T02:57:35.858Z,20.00
2022-08-18T03:00:04.618Z,20.00
2022-08-18T03:02:32.418Z,20.00
2022-08-18T03:04:59.887Z,20.00
2022-08-18T03:07:27.356Z,20.00
2022-08-18T03:09:54.669Z,20.00
2022-08-18T03:12:22.549Z,20.00
2022-08-18T03:14:50.432Z,20.00
2022-08-18T03:17:17.930Z,19.90
2022-08-18T03:19:47.788Z,20.00
2022-08-18T03:22:27.551Z,19.90
2022-08-18T03:24:58.680Z,20.10
2022-08-18T03:27:26.505Z,20.10
2022-08-18T03:29:54.097Z,20.10
2022-08-18T03:32:21.416Z,20.10
2022-08-18T03:34:49.240Z,20.20
2022-08-18T03:37:18.910Z,20.20
2022-08-18T03:39:46.302Z,20.20
2022-08-18T03:42:14.003Z,20.30
2022-08-18T03:44:41.527Z,20.40
2022-08-18T03:47:10.643Z,20.40
2022-08-18T03:49:38.836Z,20.50
2022-08-18T03:52:11.080Z,20.50
2022-08-18T03:54:39.596Z,20.60
2022-08-18T03:57:12.308Z,20.70
2022-08-18T03:59:41.774Z,20.70
2022-08-18T04:02:09.780Z,20.90
2022-08-18T04:04:37.409Z,21.00
2022-08-18T04:07:17.614Z,21.10
2022-08-18T04:09:45.575Z,21.30
2022-08-18T04:12:16.632Z,21.40
2022-08-18T04:14:48.148Z,22.00
2022-08-18T04:17:16.797Z,22.70
2022-08-18T04:19:44.112Z,23.30
2022-08-18T04:22:17.115Z,23.70
2022-08-18T04:24:45.392Z,24.20
2022-08-18T04:27:13.007Z,24.60
2022-08-18T04:29:40.398Z,25.00
2022-08-18T04:32:08.620Z,25.20
2022-08-18T04:34:36.258Z,25.20
2022-08-18T04:37:04.210Z,24.90
2022-08-18T04:39:32.151Z,24.60
2022-08-18T04:41:59.605Z,24.20
2022-08-18T04:44:27.213Z,24.00
2022-08-18T04:46:54.902Z,23.70
2022-08-18T04:49:26.172Z,23.90
2022-08-18T04:52:36.484Z,24.10
2022-08-18T04:55:02.062Z,24.30
2022-08-18T04:57:33.001Z,24.60
2022-08-18T05:00:03.191Z,24.50
2022-08-18T05:02:33.152Z,24.50
2022-08-18T05:05:01.787Z,24.80
2022-08-18T05:07:30.568Z,25.20
2022-08-18T05:09:58.340Z,26.00
2022-08-18T05:12:26.306Z,26.30
2022-08-18T05:14:57.753Z,27.00
2022-08-18T05:17:30.293Z,27.50
2022-08-18T05:20:01.845Z,28.00
2022-08-18T05:22:31.064Z,28.50
2022-08-18T05:25:00.322Z,29.00
2022-08-18T05:27:31.575Z,29.10
2022-08-18T05:30:01.073Z,29.20
2022-08-18T05:32:41.138Z,29.50
2022-08-18T05:35:22.435Z,29.90
2022-08-18T05:37:56.710Z,29.40
2022-08-18T05:40:27.104Z,30.20
2022-08-18T05:42:57.592Z,30.00
2022-08-18T05:45:25.603Z,30.60
2022-08-18T05:47:57.915Z,30.40
2022-08-18T05:50:26.368Z,30.60
2022-08-18T05:52:54.004Z,31.20
2022-08-18T05:56:00.167Z,31.60
2022-08-18T05:58:34.042Z,31.30
2022-08-18T06:01:03.091Z,31.20
2022-08-18T06:03:45.288Z,31.40
2022-08-18T06:06:25.920Z,31.30
2022-08-18T06:08:56.231Z,31.40
2022-08-18T06:11:23.745Z,32.00
2022-08-18T06:13:54.299Z,32.40
2022-08-18T06:16:27.224Z,32.10
2022-08-18T06:19:18.247Z,32.80
2022-08-18T06:21:48.250Z,32.50
2022-08-18T06:24:21.662Z,32.40
2022-08-18T06:27:10.924Z,32.80
2022-08-18T06:29:41.157Z,33.10
2022-08-18T06:32:11.585Z,33.20
2022-08-18T06:34:40.919Z,32.40
2022-08-18T06:37:20.456Z,32.50
2022-08-18T06:39:50.083Z,32.30
2022-08-18T06:42:21.784Z,31.00
2022-08-18T06:44:51.056Z,30.20
2022-08-18T06:47:21.322Z,29.90
2022-08-18T06:49:55.002Z,30.10
2022-08-18T06:52:24.646Z,30.60
2022-08-18T06:54:55.448Z,31.20
2022-08-18T06:57:28.111Z,31.40
2022-08-18T07:00:00.588Z,32.40
2022-08-18T07:02:39.021Z,32.50
2022-08-18T07:05:09.265Z,32.80
2022-08-18T07:07:41.006Z,32.90
2022-08-18T07:10:29.450Z,33.90
2022-08-18T07:13:15.818Z,34.00
2022-08-18T07:15:45.942Z,34.70
2022-08-18T07:18:13.767Z,35.50
2022-08-18T07:20:49.536Z,35.00
2022-08-18T07:23:27.800Z,34.40
2022-08-18T07:26:00.917Z,34.10
2022-08-18T07:28:37.324Z,34.40
2022-08-18T07:31:27.838Z,34.60
2022-08-18T07:34:00.997Z,34.70
2022-08-18T07:36:31.724Z,34.00
2022-08-18T07:39:02.751Z,33.00
2022-08-18T07:41:43.095Z,32.60
2022-08-18T07:44:18.539Z,32.20
2022-08-18T07:46:54.475Z,31.80
2022-08-18T07:49:23.102Z,31.60
2022-08-18T07:52:36.286Z,31.20
2022-08-18T07:55:04.235Z,30.70
2022-08-18T07:57:42.646Z,30.50
2022-08-18T08:00:18.698Z,30.50
2022-08-18T08:03:09.196Z,30.40
2022-08-18T08:05:42.405Z,30.30
2022-08-18T08:08:28.209Z,30.30
2022-08-18T08:10:59.580Z,30.50
2022-08-18T08:13:55.376Z,30.30
2022-08-18T08:16:41.901Z,30.40
2022-08-18T08:19:12.752Z,30.60
2022-08-18T08:21:45.057Z,30.40
2022-08-18T08:24:21.225Z,30.40
2022-08-18T08:26:51.799Z,30.50
2022-08-18T08:29:28.196Z,30.50
2022-08-18T08:32:02.128Z,30.50
2022-08-18T08:34:51.094Z,30.20
2022-08-18T08:37:21.374Z,30.40
2022-08-18T08:39:52.158Z,30.30
2022-08-18T08:42:29.242Z,30.70
2022-08-18T08:45:04.335Z,30.70
2022-08-18T08:47:43.010Z,30.10
2022-08-18T08:50:36.926Z,30.20
2022-08-18T08:53:19.474Z,30.50
2022-08-18T08:55:49.850Z,30.80
2022-08-18T08:58:17.337Z,30.90
2022-08-18T09:00:45.496Z,30.60
2022-08-18T09:03:12.795Z,30.70
2022-08-18T09:05:45.421Z,30.60
2022-08-18T09:08:12.729Z,30.50
2022-08-18T09:11:03.142Z,30.20
2022-08-18T09:13:33.529Z,30.30
2022-08-18T09:16:19.154Z,30.40
2022-08-18T09:18:56.885Z,30.40
2022-08-18T09:21:36.061Z,30.40
2022-08-18T09:24:12.743Z,30.40
2022-08-18T09:26:42.982Z,30.70
2022-08-18T09:29:15.860Z,30.60
2022-08-18T09:31:44.770Z,30.70
2022-08-18T09:34:21.965Z,30.80
2022-08-18T09:37:00.508Z,30.80
2022-08-18T09:39:54.891Z,31.10
2022-08-18T09:42:48.332Z,31.00
2022-08-18T09:45:34.319Z,31.20
2022-08-18T09:48:03.622Z,31.60
2022-08-18T09:50:51.111Z,32.40
2022-08-18T09:53:37.960Z,33.00
2022-08-18T09:56:07.038Z,33.40
2022-08-18T09:58:35.190Z,33.40
2022-08-18T10:01:38.774Z,33.10
2022-08-18T10:04:13.447Z,33.00
2022-08-18T10:06:42.954Z,33.90
2022-08-18T10:09:27.090Z,34.40
2022-08-18T10:12:08.796Z,34.50
2022-08-18T10:14:54.828Z,35.50
2022-08-18T10:17:37.601Z,35.70
2022-08-18T10:20:27.829Z,35.00
2022-08-18T10:22:57.406Z,34.80
2022-08-18T10:25:48.807Z,34.80
2022-08-18T10:28:42.161Z,35.20
2022-08-18T10:31:10.492Z,35.80
2022-08-18T10:33:56.103Z,37.00
2022-08-18T10:36:53.089Z,37.30
2022-08-18T10:39:22.573Z,36.90
2022-08-18T10:42:02.753Z,38.00
2022-08-18T10:44:34.789Z,37.70
2022-08-18T10:47:02.546Z,37.70
2022-08-18T10:49:32.426Z,37.70
2022-08-18T10:52:14.817Z,37.00
2022-08-18T10:55:00.490Z,36.90
2022-08-18T10:57:30.838Z,36.40
2022-08-18T11:00:01.833Z,37.00
2022-08-18T11:02:29.937Z,37.40
2022-08-18T11:04:59.143Z,37.10
2022-08-18T11:07:34.068Z,37.00
2022-08-18T11:13:08.679Z,36.50
2022-08-18T11:15:45.969Z,35.60
2022-08-18T11:18:32.816Z,35.90
2022-08-18T11:21:28.700Z,36.50
2022-08-18T11:24:15.948Z,37.20
2022-08-18T11:26:52.941Z,37.40
2022-08-18T11:29:21.742Z,37.30
2022-08-18T11:31:54.016Z,38.00
2022-08-18T11:34:45.776Z,37.90
2022-08-18T11:37:22.891Z,37.50
2022-08-18T11:39:52.764Z,37.90
2022-08-18T11:42:26.838Z,37.70
2022-08-18T11:44:55.508Z,37.90
2022-08-18T11:47:27.565Z,37.40
2022-08-18T11:50:08.613Z,37.80
2022-08-18T11:52:53.393Z,37.60
2022-08-18T11:55:24.101Z,37.70
2022-08-18T11:57:56.392Z,37.60
2022-08-18T12:00:42.510Z,37.00
2022-08-18T12:03:16.890Z,37.40
2022-08-18T12:05:54.021Z,37.30
2022-08-18T12:11:31.238Z,37.50
2022-08-18T12:14:31.301Z,37.00
2022-08-18T12:16:57.042Z,37.00
2022-08-18T12:19:25.241Z,37.10
2022-08-18T12:21:58.642Z,37.40
2022-08-18T12:24:34.514Z,37.10
2022-08-18T12:27:21.590Z,37.20
2022-08-18T12:29:50.910Z,36.90
2022-08-18T12:38:00.052Z,37.50
2022-08-18T12:40:31.212Z,37.50
2022-08-18T12:42:58.473Z,37.60
2022-08-18T12:45:27.693Z,37.60
2022-08-18T12:47:56.407Z,37.30
2022-08-18T12:50:31.416Z,37.50
2022-08-18T12:53:02.069Z,37.20
2022-08-18T12:55:31.988Z,37.00
2022-08-18T12:57:59.371Z,36.40
2022-08-18T13:00:27.974Z,35.70
2022-08-18T13:02:57.269Z,35.10
2022-08-18T13:05:27.621Z,34.90
2022-08-18T13:08:04.521Z,34.50
2022-08-18T13:10:45.167Z,34.40
2022-08-18T13:13:25.032Z,34.20
2022-08-18T13:15:58.206Z,34.30
2022-08-18T13:18:29.017Z,34.60
2022-08-18T13:21:00.358Z,35.20
2022-08-18T13:23:33.035Z,35.60
2022-08-18T13:26:01.983Z,36.00
2022-08-18T13:28:35.483Z,36.00
2022-08-18T13:31:05.428Z,36.30
2022-08-18T13:33:56.319Z,35.90
2022-08-18T13:36:22.364Z,35.80
2022-08-18T13:38:54.798Z,35.40
2022-08-18T13:43:52.185Z,35.30
2022-08-18T13:46:30.175Z,34.50
2022-08-18T13:49:03.044Z,34.50
2022-08-18T13:51:31.364Z,34.00
2022-08-18T13:54:26.560Z,33.90
2022-08-18T13:56:51.579Z,33.90
2022-08-18T13:59:20.834Z,34.00
2022-08-18T14:01:52.346Z,33.90
2022-08-18T14:04:21.109Z,33.80
2022-08-18T14:06:56.988Z,33.40
2022-08-18T14:09:27.869Z,33.40
2022-08-18T14:12:15.939Z,33.20
2022-08-18T14:14:52.164Z,33.30
2022-08-18T14:17:20.415Z,33.20
2022-08-18T14:20:14.822Z,33.20
2022-08-18T14:23:08.960Z,33.00
2022-08-18T14:25:54.656Z,32.90
2022-08-18T14:28:24.919Z,33.00
2022-08-18T14:30:54.501Z,33.00
2022-08-18T14:33:34.261Z,33.00
2022-08-18T14:36:14.107Z,32.80
2022-08-18T14:38:41.959Z,32.70
2022-08-18T14:41:11.689Z,32.70
2022-08-18T14:43:51.668Z,32.80
2022-08-18T14:46:30.594Z,32.90
2022-08-18T14:49:04.237Z,32.80
2022-08-18T14:51:33.706Z,32.70
2022-08-18T14:54:01.801Z,32.60
2022-08-18T14:56:29.926Z,32.50
2022-08-18T14:59:00.949Z,32.40
2022-08-18T15:01:28.094Z,32.30
2022-08-18T15:04:18.498Z,32.30
2022-08-18T15:06:56.829Z,32.20
2022-08-18T15:09:26.678Z,32.00
2022-08-18T15:11:56.119Z,31.90
2022-08-18T15:14:33.508Z,32.00
2022-08-18T15:17:13.048Z,31.80
2022-08-18T15:20:00.556Z,31.90
2022-08-18T15:22:47.763Z,31.90
2022-08-18T15:25:34.392Z,31.90
2022-08-18T15:28:01.891Z,31.90
2022-08-18T15:30:29.351Z,31.80
2022-08-18T15:32:59.120Z,31.80
2022-08-18T15:35:31.158Z,31.80
2022-08-18T15:37:58.687Z,31.60
2022-08-18T15:40:31.257Z,31.60
2022-08-18T15:43:09.757Z,31.50
2022-08-18T15:45:43.297Z,31.40
2022-08-18T15:48:25.183Z,31.30
2022-08-18T15:50:52.654Z,31.20
2022-08-18T15:53:23.939Z,31.10
2022-08-18T15:55:51.317Z,31.10
2022-08-18T15:58:22.318Z,31.10
2022-08-18T16:00:52.479Z,30.90
2022-08-18T16:03:21.811Z,30.90
2022-08-18T16:05:53.458Z,30.90
2022-08-18T16:08:22.164Z,30.80
2022-08-18T16:10:50.169Z,30.80
2022-08-18T16:13:17.676Z,30.80
2022-08-18T16:15:48.486Z,30.80
2022-08-18T16:18:17.406Z,30.70
2022-08-18T16:20:45.152Z,30.70
2022-08-18T16:23:12.783Z,30.60
2022-08-18T16:25:41.162Z,30.60
2022-08-18T16:28:08.613Z,30.50
2022-08-18T16:30:36.500Z,30.50
2022-08-18T16:33:05.503Z,30.40
2022-08-18T16:35:33.223Z,30.50
2022-08-18T16:38:05.496Z,30.40
2022-08-18T16:40:32.931Z,30.30
2022-08-18T16:43:00.967Z,30.30
2022-08-18T16:45:29.065Z,30.30
2022-08-18T16:47:56.317Z,30.30
2022-08-18T16:50:25.488Z,30.30
2022-08-18T16:52:52.904Z,30.20
2022-08-18T16:55:20.660Z,30.10
2022-08-18T16:58:06.512Z,30.00
2022-08-18T17:01:12.628Z,30.00
2022-08-18T17:04:05.248Z,29.80
2022-08-18T17:06:47.831Z,29.70
2022-08-18T17:09:16.116Z,29.70
2022-08-18T17:11:48.155Z,29.60
2022-08-18T17:14:20.793Z,29.50
2022-08-18T17:16:53.943Z,29.50
2022-08-18T17:19:22.542Z,29.40
2022-08-18T17:21:51.274Z,29.30
2022-08-18T17:24:31.218Z,29.30
2022-08-18T17:27:27.032Z,29.20
2022-08-18T17:29:54.879Z,29.10
2022-08-18T17:32:25.516Z,29.00
2022-08-18T17:34:56.141Z,29.00
2022-08-18T17:37:24.138Z,29.00
2022-08-18T17:39:54.571Z,28.80
2022-08-18T17:42:30.684Z,28.80
2022-08-18T17:45:00.593Z,28.80
2022-08-18T17:47:37.261Z,28.70
2022-08-18T17:50:31.545Z,28.60
2022-08-18T17:53:01.787Z,28.60
2022-08-18T17:55:31.498Z,28.50
2022-08-18T17:58:06.966Z,28.50
2022-08-18T18:00:34.344Z,28.30
2022-08-18T18:03:01.692Z,28.30
2022-08-18T18:05:35.844Z,28.10
2022-08-18T18:08:03.293Z,28.10
2022-08-18T18:11:02.282Z,28.00
2022-08-18T18:13:33.514Z,28.00
2022-08-18T18:16:21.117Z,27.90
2022-08-18T18:18:59.928Z,27.80
2022-08-18T18:21:53.452Z,27.70
2022-08-18T18:24:23.714Z,27.70
2022-08-18T18:26:52.408Z,27.60
2022-08-18T18:29:38.299Z,27.60
2022-08-18T18:32:26.953Z,27.50
2022-08-18T18:35:09.768Z,27.50
2022-08-18T18:37:40.897Z,27.40
2022-08-18T18:40:17.674Z,27.40
2022-08-18T18:42:44.997Z,27.30
2022-08-18T18:45:21.133Z,27.20
2022-08-18T18:48:09.858Z,27.10
2022-08-18T18:51:11.025Z,27.10
2022-08-18T18:53:59.831Z,27.10
2022-08-18T18:56:33.807Z,27.10
2022-08-18T18:59:19.857Z,27.00
2022-08-18T19:02:03.806Z,26.90
2022-08-18T19:04:45.063Z,26.80
2022-08-18T19:07:25.319Z,27.00
2022-08-18T19:10:07.462Z,26.70
2022-08-18T19:12:43.413Z,26.80
2022-08-18T19:15:15.078Z,26.80
2022-08-18T19:17:45.929Z,26.80
2022-08-18T19:20:17.525Z,26.70
2022-08-18T19:22:57.357Z,26.70
2022-08-18T19:25:29.318Z,26.60
2022-08-18T19:28:01.166Z,26.60
2022-08-18T19:30:29.302Z,26.60
2022-08-18T19:33:00.764Z,26.50
2022-08-18T19:35:35.756Z,26.50
2022-08-18T19:38:14.463Z,26.50
2022-08-18T19:40:45.253Z,26.40
2022-08-18T19:43:22.738Z,26.30
2022-08-18T19:45:55.639Z,26.30
2022-08-18T19:48:30.246Z,26.30
2022-08-18T19:51:06.939Z,26.20
2022-08-18T19:53:39.439Z,26.10
2022-08-18T19:56:26.307Z,26.10
2022-08-18T19:59:18.686Z,26.10
2022-08-18T20:01:57.598Z,26.00
2022-08-18T20:04:48.147Z,26.00
2022-08-18T20:07:34.470Z,26.00
2022-08-18T20:10:13.657Z,25.90
2022-08-18T20:13:10.223Z,25.90
2022-08-18T20:15:57.667Z,25.90
2022-08-18T20:18:35.624Z,25.80
2022-08-18T20:21:11.669Z,25.80
2022-08-18T20:23:57.315Z,25.70
2022-08-18T20:26:39.631Z,25.70
2022-08-18T20:29:07.369Z,25.60
2022-08-18T20:31:46.315Z,25.60
2022-08-18T20:34:14.724Z,25.60
2022-08-18T20:36:45.545Z,25.50
2022-08-18T20:39:32.542Z,25.50
2022-08-18T20:42:04.214Z,25.50
2022-08-18T20:44:40.563Z,25.50
2022-08-18T20:47:16.345Z,25.50
2022-08-18T20:50:03.189Z,25.40
2022-08-18T20:52:50.815Z,25.40
2022-08-18T20:55:41.269Z,25.40
2022-08-18T20:58:12.400Z,25.30
2022-08-18T21:00:41.800Z,25.20
2022-08-18T21:03:13.669Z,25.20
2022-08-18T21:05:43.792Z,25.20
2022-08-18T21:08:16.826Z,25.20
2022-08-18T21:10:51.585Z,25.10
2022-08-18T21:13:29.773Z,25.10
2022-08-18T21:15:57.393Z,25.10
2022-08-18T21:18:25.227Z,25.00
2022-08-18T21:20:54.056Z,24.90
2022-08-18T21:23:29.619Z,24.80
2022-08-18T21:26:12.735Z,24.80
2022-08-18T21:28:42.184Z,24.80
2022-08-18T21:31:42.410Z,24.80
2022-08-18T21:34:19.969Z,24.70
2022-08-18T21:36:55.348Z,24.80
2022-08-18T21:39:22.729Z,24.60
2022-08-18T21:41:51.819Z,24.60
2022-08-18T21:44:25.124Z,24.60
2022-08-18T21:47:05.798Z,24.50
2022-08-18T21:49:34.129Z,24.50
2022-08-18T21:52:01.699Z,24.50
2022-08-18T21:54:34.622Z,24.40
2022-08-18T21:57:18.771Z,24.40
2022-08-18T22:00:04.465Z,24.40
2022-08-18T22:02:39.767Z,24.50
2022-08-18T22:05:09.231Z,24.40
2022-08-18T22:07:36.539Z,24.30
2022-08-18T22:10:24.865Z,24.30
2022-08-18T22:13:15.809Z,24.20
2022-08-18T22:15:47.951Z,24.20
2022-08-18T22:18:18.208Z,24.20
2022-08-18T22:20:47.427Z,24.10
2022-08-18T22:23:33.006Z,24.10
2022-08-18T22:26:08.152Z,24.10
2022-08-18T22:28:41.469Z,24.10
2022-08-18T22:31:08.841Z,23.90
2022-08-18T22:33:36.221Z,23.90
2022-08-18T22:36:04.686Z,23.90
2022-08-18T22:38:31.957Z,23.90
2022-08-18T22:40:59.964Z,23.80
2022-08-18T22:43:27.286Z,23.80
2022-08-18T22:45:54.574Z,23.80
2022-08-18T22:48:21.925Z,23.80
2022-08-18T22:50:49.794Z,23.80
2022-08-18T22:53:17.607Z,23.70
2022-08-18T22:55:46.603Z,23.70
2022-08-18T22:58:16.892Z,23.80
2022-08-18T23:00:49.586Z,23.70
2022-08-18T23:03:18.007Z,23.60
2022-08-18T23:05:45.343Z,23.60
2022-08-18T23:08:12.906Z,23.60
2022-08-18T23:10:40.278Z,23.60
2022-08-18T23:13:07.567Z,23.60
2022-08-18T23:15:47.553Z,23.50
2022-08-18T23:18:19.784Z,23.50
2022-08-18T23:20:48.159Z,23.50
2022-08-18T23:23:19.332Z,23.50
2022-08-18T23:25:50.668Z,23.40
2022-08-18T23:28:19.487Z,23.30
2022-08-18T23:30:47.497Z,23.30
2022-08-18T23:33:15.464Z,23.20
2022-08-18T23:35:43.676Z,23.20
2022-08-18T23:38:11.113Z,23.20
2022-08-18T23:40:39.723Z,23.20
2022-08-18T23:43:07.088Z,23.20
2022-08-18T23:45:38.806Z,23.30
2022-08-18T23:48:06.721Z,23.30
2022-08-18T23:50:34.756Z,23.30
2022-08-18T23:53:05.080Z,23.30
2022-08-18T23:55:34.073Z,23.30
2022-08-18T23:58:01.427Z,23.30
